Boxian, China
Current Conditions -  °F | °C
As of 9:00 PM on Monday 22 Dec 2014 (Local Time) from ZHCC Reporting Station
Clear Clear  
Wind Chill: 38°   Ceiling: Unl
Heat Index: 41°   Visibility: 4mi
Dew Point: 18°   Wind: 4mph
Humidity: 39%   Direction: 160°SSE
Pressure: 30.24"   Gusts: NA
Location:  33.88°N, 115.77°E
Report Text: ZHCC 221300Z 16002MPS 120V200 7000 NSC 05/M08 Q1024 NOSIG
Loading
Personal Weather Stations






























Interactive Weather Map New forecast layout! Learn more

10-Day Weather Forecast

Advertisements
Track Severe Weather on mobile